aviador You're here:

KMAO Decoded Metar

MARION in SC, USA
Report Time2018-02-25 11:15:00
UTC Time2018-02-25 11:30:57
Flight Rules vfr VFR
Wind190° at 07 kt
W.Decomp.*RWY 22: 6.4 kt HW 2.8 kt LCW
W.Rank190° ranks 1
Current wind is above 190° avg. (6.0)
Visibility9999 m
Phenomena:N/A
Clouds:Scattered 004 Hf
Expected CloudBase > 400 ft AGL from Temp-Dew spread
CeilingNone
Temp17°C (ISA +2)
Dew Point16°C (94% RH)
AAT16.5°C
QNH1019 hPa
Density Alt387 ft
Elevation92 ft
Report Wrong Elevation
Raw Report
KMAO 251115Z AUTO 19007KT 7SM SCT004 17/16 A3010 RMK AO2=

Extra information for KMAO:More info

Metar Taf Metar & Taf Last 4 Metars F.Rules Stats Wind Profile Meteogram Temp Stats Airport Information Weather charts Add Link Nearby VenuesMetar ALERT Operation Metar Decoded Social comments

AIRNAV info for KMAO